Honaunau, Hawaii
Current Conditions -  °F | °C
As of 1:53 PM on Sunday 23 Nov 2014 (Local Time) from PHKO Reporting Station
Few Clouds Few Clouds  
Wind Chill: 84°   Ceiling: Unl
Heat Index: 88°   Visibility: 10mi
Dew Point: 69°   Wind: 10mph
Humidity: 61%   Direction: 270°W
Pressure: 29.91"   Gusts: NA
Location:  19.42°N, 155.91°W
Report Text: PHKO 232353Z 27009KT 10SM FEW024 29/21 A2991 RMK AO2 SLP128 T02890206 10294 20250 56020
Loading
Personal Weather Stations






























Interactive Weather Map New forecast layout! Learn more

10-Day Weather Forecast

Advertisements
Track Severe Weather on mobile